Time;durP1;ratioP1;P1;durP2;ratioP2;P2;SDS_P1;SDS_P2;PMS_P1;PMS_P2;Temp;Humidity;BMP_temperature;BMP_pressure;BME280_temperature;BME280_humidity;BME280_pressure;Samples;Min_cycle;Max_cycle;Signal;HPM_P1;HPM_P2
2021/07/21 00:00:36;;;;;;;;;9.67;9.67;;;;;;;;3549244;39;111773;-76
2021/07/21 00:03:02;;;;;;;;;9.33;8.33;;;;;;;;3547482;39;113463;-75
2021/07/21 00:05:29;;;;;;;;;7.67;7.67;;;;;;;;3545205;39;114449;-75
2021/07/21 00:07:58;;;;;;;;;11.00;9.67;;;;;;;;3551958;39;112519;-77
2021/07/21 00:10:26;;;;;;;;;9.67;9.00;;;;;;;;3547350;39;113998;-76
2021/07/21 00:15:39;;;;;;;;;9.67;9.00;;;;;;;;3546289;39;111902;-75
2021/07/21 00:18:16;;;;;;;;;9.00;9.00;;;;;;;;3548370;39;114354;-75
2021/07/21 00:20:44;;;;;;;;;8.00;7.00;;;;;;;;3548288;39;112191;-75
2021/07/21 00:23:12;;;;;;;;;7.67;7.33;;;;;;;;3548553;39;113245;-75
2021/07/21 00:25:39;;;;;;;;;10.00;8.00;;;;;;;;3547333;39;113984;-75
2021/07/21 00:28:05;;;;;;;;;8.67;8.67;;;;;;;;3549083;39;111854;-75
2021/07/21 00:30:32;;;;;;;;;8.33;8.33;;;;;;;;3550068;39;113271;-77
2021/07/21 00:32:58;;;;;;;;;9.00;7.33;;;;;;;;3545703;39;112189;-76
2021/07/21 00:35:25;;;;;;;;;10.33;9.67;;;;;;;;3549567;39;113236;-76
2021/07/21 00:37:51;;;;;;;;;11.33;9.00;;;;;;;;3549049;39;114560;-76
2021/07/21 00:40:20;;;;;;;;;7.33;7.33;;;;;;;;3549382;39;111960;-76
2021/07/21 00:42:46;;;;;;;;;7.00;6.67;;;;;;;;3550178;39;113232;-77
2021/07/21 00:45:13;;;;;;;;;7.33;7.33;;;;;;;;3550762;39;114073;-77
2021/07/21 00:47:40;;;;;;;;;9.33;8.00;;;;;;;;3550292;39;112665;-77
2021/07/21 00:50:08;;;;;;;;;10.33;9.67;;;;;;;;3549833;39;113062;-77
2021/07/21 00:52:35;;;;;;;;;9.67;8.67;;;;;;;;3552869;39;113881;-77
2021/07/21 00:55:02;;;;;;;;;10.67;8.00;;;;;;;;3549510;39;113751;-77
2021/07/21 00:57:30;;;;;;;;;10.33;9.67;;;;;;;;3550437;39;113942;-77
2021/07/21 01:00:00;;;;;;;;;9.33;8.33;;;;;;;;3548989;39;111862;-77
2021/07/21 01:02:27;;;;;;;;;7.67;7.67;;;;;;;;3547144;39;113579;-77
2021/07/21 01:04:53;;;;;;;;;9.67;8.33;;;;;;;;3550244;39;113773;-77
2021/07/21 01:07:22;;;;;;;;;10.75;9.50;;;;;;;;3549660;39;111759;-77
2021/07/21 01:09:49;;;;;;;;;8.00;8.00;;;;;;;;3550349;39;113323;-78
2021/07/21 01:12:20;;;;;;;;;9.25;9.25;;;;;;;;3549210;39;113641;-77
2021/07/21 01:14:52;;;;;;;;;9.00;8.50;;;;;;;;3552929;39;111866;-77
2021/07/21 01:17:22;;;;;;;;;9.00;9.00;;;;;;;;3544953;39;113031;-76
2021/07/21 01:20:06;;;;;;;;;9.00;9.00;;;;;;;;3550126;39;112445;-77
2021/07/21 01:22:36;;;;;;;;;10.75;10.50;;;;;;;;3547010;39;113245;-77
2021/07/21 01:25:06;;;;;;;;;9.00;8.75;;;;;;;;3546724;39;113027;-77
2021/07/21 01:27:36;;;;;;;;;9.33;9.00;;;;;;;;3550564;39;112164;-76
2021/07/21 01:30:05;;;;;;;;;10.75;9.25;;;;;;;;3551008;39;113192;-76
2021/07/21 01:32:33;;;;;;;;;9.50;9.25;;;;;;;;3550114;39;113941;-77
2021/07/21 01:35:04;;;;;;;;;8.50;7.25;;;;;;;;3549185;39;111850;-78
2021/07/21 01:37:32;;;;;;;;;9.50;8.75;;;;;;;;3549549;39;112527;-78
2021/07/21 01:40:01;;;;;;;;;10.50;8.00;;;;;;;;3550720;39;111787;-78
2021/07/21 01:42:28;;;;;;;;;8.75;8.75;;;;;;;;3547087;39;113505;-77
2021/07/21 01:44:56;;;;;;;;;9.00;8.00;;;;;;;;3550379;39;114064;-77
2021/07/21 01:47:23;;;;;;;;;10.75;9.75;;;;;;;;3548933;39;112248;-76
2021/07/21 01:49:51;;;;;;;;;10.00;9.50;;;;;;;;3550849;39;113177;-76
2021/07/21 01:52:21;;;;;;;;;9.25;9.00;;;;;;;;3549297;39;113912;-77
2021/07/21 01:54:48;;;;;;;;;11.00;9.00;;;;;;;;3549515;39;111753;-77
2021/07/21 01:57:15;;;;;;;;;9.75;9.75;;;;;;;;3549711;39;113203;-78
2021/07/21 01:59:43;;;;;;;;;9.75;9.25;;;;;;;;3551680;39;113237;-76
2021/07/21 02:02:11;;;;;;;;;11.50;9.00;;;;;;;;3549534;39;113682;-76
2021/07/21 02:04:38;;;;;;;;;10.00;10.00;;;;;;;;3550274;39;114067;-77
2021/07/21 02:07:07;;;;;;;;;9.50;8.25;;;;;;;;3549970;39;112559;-76
2021/07/21 02:09:34;;;;;;;;;9.25;8.50;;;;;;;;3548796;39;113343;-77
2021/07/21 02:12:01;;;;;;;;;9.00;9.00;;;;;;;;3550217;39;114785;-77
2021/07/21 02:14:28;;;;;;;;;9.50;9.50;;;;;;;;3546615;39;111815;-76
2021/07/21 02:16:56;;;;;;;;;11.00;8.25;;;;;;;;3546702;39;112405;-76
2021/07/21 02:19:28;;;;;;;;;9.00;9.00;;;;;;;;3551393;39;113893;-77
2021/07/21 02:21:56;;;;;;;;;9.50;9.50;;;;;;;;3548713;39;113703;-77
2021/07/21 02:24:23;;;;;;;;;10.00;8.25;;;;;;;;3549741;39;113924;-77
2021/07/21 02:26:50;;;;;;;;;7.00;7.00;;;;;;;;3544402;39;112836;-76
2021/07/21 02:29:17;;;;;;;;;10.75;8.75;;;;;;;;3549315;39;113451;-77
2021/07/21 02:31:47;;;;;;;;;10.75;10.50;;;;;;;;3548997;39;114503;-77
2021/07/21 02:34:14;;;;;;;;;7.75;7.50;;;;;;;;3549623;39;111923;-77
2021/07/21 02:36:44;;;;;;;;;11.00;10.00;;;;;;;;3549589;39;113594;-77
2021/07/21 02:39:10;;;;;;;;;10.25;10.00;;;;;;;;3549031;39;113836;-74
2021/07/21 02:41:38;;;;;;;;;9.50;9.00;;;;;;;;3552349;39;111905;-76
2021/07/21 02:44:05;;;;;;;;;11.75;10.75;;;;;;;;3548346;39;113965;-76
2021/07/21 02:46:31;;;;;;;;;12.75;10.25;;;;;;;;3550131;39;111847;-75
2021/07/21 02:48:58;;;;;;;;;8.00;8.00;;;;;;;;3548675;39;113242;-75
2021/07/21 02:51:27;;;;;;;;;9.00;9.00;;;;;;;;3547475;39;115580;-76
2021/07/21 02:54:01;;;;;;;;;9.00;8.00;;;;;;;;3548766;39;111793;-75
2021/07/21 02:56:31;;;;;;;;;9.25;9.25;;;;;;;;3546447;39;113218;-76
2021/07/21 02:59:03;;;;;;;;;7.50;7.50;;;;;;;;3540919;39;113162;-76
2021/07/21 03:01:33;;;;;;;;;12.00;10.00;;;;;;;;3546611;39;112438;-76
2021/07/21 03:04:02;;;;;;;;;12.50;11.00;;;;;;;;3547036;39;113598;-77
2021/07/21 03:06:28;;;;;;;;;10.00;10.00;;;;;;;;3546538;39;111928;-76
2021/07/21 03:08:57;;;;;;;;;13.00;10.50;;;;;;;;3546449;39;113281;-77
2021/07/21 03:11:24;;;;;;;;;12.00;9.00;;;;;;;;3549440;39;114854;-76
2021/07/21 03:13:53;;;;;;;;;9.75;9.00;;;;;;;;3550129;39;112663;-77
2021/07/21 03:16:23;;;;;;;;;11.25;9.75;;;;;;;;3548157;39;113557;-76
2021/07/21 03:18:52;;;;;;;;;11.00;10.75;;;;;;;;3548505;39;113906;-77
2021/07/21 03:21:18;;;;;;;;;9.25;8.00;;;;;;;;3549546;39;112071;-76
2021/07/21 03:23:46;;;;;;;;;10.25;9.00;;;;;;;;3548875;39;112853;-75
2021/07/21 03:26:14;;;;;;;;;11.25;10.00;;;;;;;;3549646;39;113255;-76
2021/07/21 03:28:41;;;;;;;;;13.75;12.00;;;;;;;;3549166;39;113931;-76
2021/07/21 03:31:07;;;;;;;;;10.00;9.75;;;;;;;;3548244;39;116686;-76
2021/07/21 03:33:34;;;;;;;;;10.00;9.00;;;;;;;;3549550;39;112064;-78
2021/07/21 03:36:02;;;;;;;;;10.75;9.25;;;;;;;;3548425;39;114044;-77
2021/07/21 03:38:30;;;;;;;;;11.00;9.50;;;;;;;;3549341;39;113938;-76
2021/07/21 03:40:57;;;;;;;;;9.00;8.50;;;;;;;;3542765;39;112273;-76
2021/07/21 03:43:25;;;;;;;;;11.00;9.00;;;;;;;;3549920;39;113084;-77
2021/07/21 03:45:52;;;;;;;;;9.75;9.00;;;;;;;;3548127;39;114058;-77
2021/07/21 03:48:20;;;;;;;;;10.25;10.25;;;;;;;;3551953;39;112161;-77
2021/07/21 03:50:47;;;;;;;;;12.75;11.00;;;;;;;;3550267;39;113967;-78
2021/07/21 03:53:14;;;;;;;;;13.50;10.00;;;;;;;;3548954;39;111777;-75
2021/07/21 03:55:41;;;;;;;;;12.50;9.50;;;;;;;;3551110;39;114196;-76
2021/07/21 03:58:08;;;;;;;;;10.00;9.25;;;;;;;;3548254;39;114110;-76
2021/07/21 04:00:37;;;;;;;;;10.00;9.75;;;;;;;;3547659;39;112547;-75
2021/07/21 04:03:04;;;;;;;;;9.25;8.00;;;;;;;;3549371;39;113584;-75
2021/07/21 04:05:31;;;;;;;;;10.00;10.00;;;;;;;;3547543;39;113847;-76
2021/07/21 04:07:58;;;;;;;;;13.25;11.25;;;;;;;;3547362;39;111948;-76
2021/07/21 04:10:27;;;;;;;;;10.50;9.25;;;;;;;;3548338;39;113409;-76
2021/07/21 04:12:55;;;;;;;;;11.00;11.00;;;;;;;;3546931;39;111878;-75
2021/07/21 04:15:22;;;;;;;;;12.25;11.25;;;;;;;;3550469;39;113274;-75
2021/07/21 04:17:51;;;;;;;;;12.00;11.50;;;;;;;;3549098;39;113741;-76
2021/07/21 04:20:18;;;;;;;;;12.00;11.25;;;;;;;;3550525;39;111787;-76
2021/07/21 04:22:45;;;;;;;;;11.75;10.25;;;;;;;;3548688;39;113181;-76
2021/07/21 04:25:13;;;;;;;;;11.25;11.00;;;;;;;;3550872;39;113925;-76
2021/07/21 04:27:40;;;;;;;;;9.50;8.50;;;;;;;;3550047;39;112188;-76
2021/07/21 04:30:07;;;;;;;;;11.50;10.25;;;;;;;;3551962;39;113882;-75
2021/07/21 04:32:34;;;;;;;;;12.75;11.25;;;;;;;;3550540;39;111880;-76
2021/07/21 04:35:02;;;;;;;;;11.25;10.00;;;;;;;;3548872;39;113445;-76
2021/07/21 04:37:29;;;;;;;;;17.00;13.50;;;;;;;;3550175;39;114055;-75
2021/07/21 04:39:56;;;;;;;;;10.50;10.50;;;;;;;;3548926;39;111877;-76
2021/07/21 04:42:25;;;;;;;;;13.75;12.00;;;;;;;;3550782;39;113873;-76
2021/07/21 04:44:52;;;;;;;;;14.50;12.00;;;;;;;;3548753;39;114001;-77
2021/07/21 04:47:18;;;;;;;;;13.25;11.00;;;;;;;;3548466;39;113244;-76
2021/07/21 04:49:46;;;;;;;;;10.00;10.00;;;;;;;;3551154;39;112919;-77
2021/07/21 04:52:16;;;;;;;;;9.75;9.75;;;;;;;;3552246;39;113925;-77
2021/07/21 04:54:42;;;;;;;;;11.75;11.00;;;;;;;;3549437;39;113386;-76
2021/07/21 04:57:10;;;;;;;;;11.50;10.50;;;;;;;;3549594;39;114076;-76
2021/07/21 04:59:37;;;;;;;;;9.25;8.00;;;;;;;;3548747;39;111846;-77
2021/07/21 05:02:04;;;;;;;;;12.00;10.25;;;;;;;;3551045;39;113308;-78
2021/07/21 05:04:30;;;;;;;;;11.75;11.75;;;;;;;;3548936;39;114204;-78
2021/07/21 05:06:57;;;;;;;;;12.00;10.50;;;;;;;;3551313;39;112419;-76
2021/07/21 05:09:25;;;;;;;;;11.00;10.50;;;;;;;;3548993;39;113921;-78
2021/07/21 05:11:51;;;;;;;;;12.25;12.25;;;;;;;;3550336;39;113842;-77
2021/07/21 05:14:18;;;;;;;;;12.50;12.00;;;;;;;;3547412;39;112365;-77
2021/07/21 05:16:44;;;;;;;;;12.00;11.00;;;;;;;;3550116;39;113834;-77
2021/07/21 05:19:11;;;;;;;;;12.00;11.00;;;;;;;;3550192;39;112055;-77
2021/07/21 05:21:38;;;;;;;;;9.00;9.00;;;;;;;;3549327;39;113887;-74
2021/07/21 05:24:05;;;;;;;;;12.50;11.00;;;;;;;;3549812;39;113857;-75
2021/07/21 05:26:33;;;;;;;;;9.50;9.50;;;;;;;;3548972;39;111848;-76
2021/07/21 05:28:59;;;;;;;;;10.50;10.25;;;;;;;;3550721;39;113351;-76
2021/07/21 05:31:26;;;;;;;;;13.50;11.75;;;;;;;;3546499;39;114257;-76
2021/07/21 05:33:52;;;;;;;;;9.50;9.50;;;;;;;;3550898;39;112766;-77
2021/07/21 05:36:19;;;;;;;;;11.00;11.00;;;;;;;;3551609;39;113336;-78
2021/07/21 05:38:46;;;;;;;;;13.25;11.75;;;;;;;;3547496;39;111892;-76
2021/07/21 05:41:13;;;;;;;;;10.25;10.00;;;;;;;;3550350;39;113395;-77
2021/07/21 05:43:41;;;;;;;;;12.00;10.00;;;;;;;;3545250;39;111819;-76
2021/07/21 05:46:07;;;;;;;;;9.75;9.75;;;;;;;;3551021;39;112094;-77
2021/07/21 05:48:34;;;;;;;;;11.25;11.25;;;;;;;;3549257;39;113203;-75
2021/07/21 05:51:00;;;;;;;;;10.75;10.75;;;;;;;;3550081;39;113969;-77
2021/07/21 05:53:27;;;;;;;;;11.00;10.75;;;;;;;;3550689;39;112213;-75
2021/07/21 05:55:53;;;;;;;;;12.50;10.00;;;;;;;;3546927;39;112657;-75
2021/07/21 05:58:20;;;;;;;;;14.00;13.25;;;;;;;;3550557;39;115014;-74
2021/07/21 06:00:48;;;;;;;;;12.75;12.00;;;;;;;;3548751;39;113486;-77
2021/07/21 06:03:18;;;;;;;;;12.00;12.00;;;;;;;;3549618;39;113966;-83
2021/07/21 06:05:45;;;;;;;;;13.50;11.00;;;;;;;;3549172;39;112250;-84
2021/07/21 06:08:11;;;;;;;;;11.25;11.00;;;;;;;;3549355;39;113460;-78
2021/07/21 06:10:40;;;;;;;;;12.00;12.00;;;;;;;;3551009;39;113893;-78
2021/07/21 06:13:06;;;;;;;;;9.25;9.25;;;;;;;;3549388;39;111963;-78
2021/07/21 06:15:33;;;;;;;;;8.25;8.25;;;;;;;;3550170;39;113762;-76
2021/07/21 06:18:04;;;;;;;;;10.25;10.00;;;;;;;;3550893;39;114123;-82
2021/07/21 06:20:31;;;;;;;;;12.75;12.75;;;;;;;;3551885;39;112287;-79
2021/07/21 06:22:57;;;;;;;;;12.75;11.75;;;;;;;;3550421;39;113931;-82
2021/07/21 06:25:24;;;;;;;;;10.00;10.00;;;;;;;;3547099;39;111809;-79
2021/07/21 06:27:51;;;;;;;;;14.75;13.00;;;;;;;;3550483;39;113476;-79
2021/07/21 06:30:20;;;;;;;;;10.25;10.00;;;;;;;;3548749;39;113845;-77
2021/07/21 06:32:46;;;;;;;;;10.00;9.25;;;;;;;;3548756;39;112013;-75
2021/07/21 06:35:15;;;;;;;;;9.75;9.75;;;;;;;;3549094;39;113806;-78
2021/07/21 06:37:41;;;;;;;;;11.00;10.75;;;;;;;;3548639;39;114581;-73
2021/07/21 06:40:09;;;;;;;;;12.25;9.25;;;;;;;;3551932;39;112139;-75
2021/07/21 06:42:36;;;;;;;;;12.00;10.75;;;;;;;;3547502;39;113945;-71
2021/07/21 06:45:03;;;;;;;;;10.00;10.00;;;;;;;;3548305;39;111927;-72
2021/07/21 06:47:30;;;;;;;;;13.00;12.25;;;;;;;;3549446;39;113248;-73
2021/07/21 06:49:56;;;;;;;;;13.75;12.50;;;;;;;;3548982;39;114218;-73
2021/07/21 06:52:24;;;;;;;;;14.50;13.25;;;;;;;;3547841;39;111978;-71
2021/07/21 06:54:52;;;;;;;;;8.25;8.25;;;;;;;;3549404;39;113791;-72
2021/07/21 06:57:19;;;;;;;;;12.00;10.00;;;;;;;;3547544;39;113947;-71
2021/07/21 06:59:45;;;;;;;;;14.25;13.00;;;;;;;;3549187;39;111866;-73
2021/07/21 07:02:12;;;;;;;;;12.50;12.00;;;;;;;;3550710;39;113282;-72
2021/07/21 07:04:38;;;;;;;;;13.25;12.00;;;;;;;;3548529;39;112116;-69
2021/07/21 07:07:05;;;;;;;;;14.25;12.50;;;;;;;;3548979;39;113365;-71
2021/07/21 07:09:33;;;;;;;;;14.00;11.75;;;;;;;;3547533;39;114545;-72
2021/07/21 07:11:59;;;;;;;;;11.75;11.00;;;;;;;;3549481;39;111844;-72
2021/07/21 07:14:26;;;;;;;;;10.25;10.25;;;;;;;;3547553;39;113263;-72
2021/07/21 07:16:53;;;;;;;;;12.00;11.25;;;;;;;;3549092;39;113815;-75
2021/07/21 07:19:19;;;;;;;;;11.75;11.50;;;;;;;;3544211;39;113431;-70
2021/07/21 07:21:46;;;;;;;;;10.00;10.00;;;;;;;;3548867;39;113845;-71
2021/07/21 07:24:12;;;;;;;;;12.33;12.33;;;;;;;;3549433;39;113996;-71
2021/07/21 07:26:43;;;;;;;;;15.67;14.67;;;;;;;;3548127;39;115292;-75
2021/07/21 07:29:09;;;;;;;;;11.00;10.00;;;;;;;;3546962;39;114178;-73
2021/07/21 07:31:36;;;;;;;;;18.67;16.00;;;;;;;;3544002;39;112346;-75
2021/07/21 07:34:03;;;;;;;;;20.67;19.67;;;;;;;;3543404;39;112677;-71
2021/07/21 07:36:29;;;;;;;;;13.33;13.33;;;;;;;;3546910;39;114286;-71
2021/07/21 07:38:56;;;;;;;;;18.00;15.00;;;;;;;;3547811;39;112242;-73
2021/07/21 07:41:23;;;;;;;;;17.33;16.67;;;;;;;;3547894;39;113848;-72
2021/07/21 07:43:50;;;;;;;;;14.67;13.00;;;;;;;;3543358;39;113042;-72
2021/07/21 07:46:17;;;;;;;;;14.00;12.67;;;;;;;;3550768;39;111977;-73
2021/07/21 07:48:44;;;;;;;;;20.00;18.67;;;;;;;;3547066;39;113904;-72
2021/07/21 07:51:10;;;;;;;;;15.67;13.67;;;;;;;;3547508;39;111804;-76
2021/07/21 07:53:39;;;;;;;;;15.33;14.67;;;;;;;;3547677;39;113289;-71
2021/07/21 07:56:06;;;;;;;;;17.67;16.00;;;;;;;;3546519;39;113317;-73
2021/07/21 07:58:32;;;;;;;;;15.33;15.00;;;;;;;;3545943;39;112873;-71
2021/07/21 08:01:00;;;;;;;;;13.00;12.33;;;;;;;;3546338;39;113690;-72
2021/07/21 08:03:27;;;;;;;;;14.67;13.33;;;;;;;;3546314;39;113280;-73
2021/07/21 08:05:56;;;;;;;;;10.00;9.33;;;;;;;;3544834;39;112108;-75
2021/07/21 08:08:23;;;;;;;;;13.00;12.00;;;;;;;;3548306;39;112996;-75
2021/07/21 08:10:50;;;;;;;;;14.33;12.67;;;;;;;;3539821;39;113246;-71
2021/07/21 08:13:16;;;;;;;;;9.33;9.33;;;;;;;;3548298;39;113381;-73
2021/07/21 08:15:43;;;;;;;;;11.00;10.00;;;;;;;;3547415;39;114152;-69
2021/07/21 08:18:12;;;;;;;;;12.33;10.00;;;;;;;;3547999;39;111968;-78
2021/07/21 08:20:38;;;;;;;;;11.00;11.00;;;;;;;;3548426;39;113157;-83
2021/07/21 08:23:05;;;;;;;;;13.00;12.33;;;;;;;;3548017;39;113778;-79
2021/07/21 08:25:32;;;;;;;;;13.67;12.67;;;;;;;;3548618;39;112358;-80
2021/07/21 08:27:58;;;;;;;;;12.67;12.67;;;;;;;;3547449;39;113193;-80
2021/07/21 08:30:25;;;;;;;;;12.67;12.67;;;;;;;;3551095;39;111835;-80
2021/07/21 08:32:53;;;;;;;;;13.33;11.67;;;;;;;;3542963;39;114007;-80
2021/07/21 08:35:24;;;;;;;;;13.33;13.33;;;;;;;;3543674;39;112919;-79
2021/07/21 08:37:51;;;;;;;;;14.67;12.33;;;;;;;;3547468;39;112233;-80
2021/07/21 08:40:18;;;;;;;;;10.00;10.00;;;;;;;;3548596;39;113223;-80
2021/07/21 08:42:45;;;;;;;;;13.33;12.00;;;;;;;;3547616;39;113994;-80
2021/07/21 08:45:12;;;;;;;;;10.00;10.00;;;;;;;;3548536;39;111913;-81
2021/07/21 08:47:39;;;;;;;;;12.00;12.00;;;;;;;;3548434;39;112961;-82
2021/07/21 08:50:07;;;;;;;;;13.33;12.33;;;;;;;;3546796;39;112941;-80
2021/07/21 08:52:35;;;;;;;;;12.00;11.00;;;;;;;;3552299;39;113448;-81
2021/07/21 08:55:02;;;;;;;;;12.00;11.00;;;;;;;;3551322;39;113793;-81
2021/07/21 08:57:30;;;;;;;;;0.00;0.00;;;;;;;;3552305;39;111965;-81
2021/07/21 08:59:58;;;;;;;;;11.50;10.50;;;;;;;;3549246;39;113323;-80
2021/07/21 09:02:25;;;;;;;;;7.75;7.00;;;;;;;;3550430;39;114625;-80
2021/07/21 09:04:52;;;;;;;;;11.00;9.50;;;;;;;;3547288;39;111739;-80
2021/07/21 09:07:21;;;;;;;;;10.00;9.50;;;;;;;;3549947;39;112921;-81
2021/07/21 09:09:49;;;;;;;;;10.25;10.25;;;;;;;;3545143;39;113249;-81
2021/07/21 09:12:16;;;;;;;;;10.00;9.75;;;;;;;;3552784;39;112125;-80
2021/07/21 09:14:43;;;;;;;;;13.50;9.75;;;;;;;;3548711;39;114242;-81
2021/07/21 09:17:14;;;;;;;;;12.00;11.25;;;;;;;;3549385;39;111952;-81
2021/07/21 09:19:44;;;;;;;;;12.00;12.00;;;;;;;;3549297;39;113295;-81
2021/07/21 09:22:15;;;;;;;;;11.00;11.00;;;;;;;;3547335;39;112979;-81
2021/07/21 09:24:42;;;;;;;;;11.50;10.50;;;;;;;;3548279;39;111910;-81
2021/07/21 09:27:10;;;;;;;;;10.25;10.25;;;;;;;;3546052;39;112621;-81
2021/07/21 09:29:36;;;;;;;;;11.50;10.50;;;;;;;;3549001;39;114567;-81
